createdAt,value
2022-09-28T00:04:49.741Z,6.69
2022-09-28T00:09:51.106Z,6.74
2022-09-28T00:14:52.409Z,6.51
2022-09-28T00:19:53.995Z,6.54
2022-09-28T00:24:55.332Z,6.52
2022-09-28T00:29:57.039Z,6.48
2022-09-28T00:34:58.363Z,6.54
2022-09-28T00:39:59.685Z,6.45
2022-09-28T00:45:01.018Z,6.54
2022-09-28T00:50:08.251Z,6.59
2022-09-28T00:55:11.886Z,6.56
2022-09-28T01:00:13.789Z,6.58
2022-09-28T01:05:16.298Z,6.56
2022-09-28T01:10:18.264Z,6.46
2022-09-28T01:15:21.776Z,6.45
2022-09-28T01:20:23.110Z,6.44
2022-09-28T01:25:33.257Z,6.35
2022-09-28T01:30:39.280Z,6.28
2022-09-28T01:36:19.308Z,6.31
2022-09-28T01:41:22.543Z,6.29
2022-09-28T01:46:27.617Z,6.19
2022-09-28T01:51:56.798Z,6.18
2022-09-28T01:57:02.498Z,6.25
2022-09-28T02:02:06.329Z,6.13
2022-09-28T02:07:09.658Z,6.11
2022-09-28T02:12:14.949Z,6.07
2022-09-28T02:17:16.287Z,6.13
2022-09-28T02:22:23.299Z,6.17
2022-09-28T02:27:24.589Z,6.22
2022-09-28T02:32:28.114Z,6.36
2022-09-28T02:37:29.458Z,6.42
2022-09-28T02:42:38.605Z,6.44
2022-09-28T02:47:58.866Z,6.48
2022-09-28T02:53:19.035Z,6.52
2022-09-28T02:58:39.290Z,6.48
2022-09-28T03:03:52.853Z,6.50
2022-09-28T03:09:03.043Z,6.61
2022-09-28T03:14:05.097Z,6.63
2022-09-28T03:19:06.422Z,6.63
2022-09-28T03:24:11.027Z,6.67
2022-09-28T03:29:12.412Z,6.64
2022-09-28T03:34:13.716Z,6.68
2022-09-28T03:39:15.191Z,6.72
2022-09-28T03:44:16.609Z,6.74
2022-09-28T03:49:18.068Z,6.64
2022-09-28T03:54:19.474Z,6.58
2022-09-28T03:59:21.106Z,6.43
2022-09-28T04:04:22.771Z,6.34
2022-09-28T04:09:24.096Z,6.23
2022-09-28T04:14:25.415Z,6.26
2022-09-28T04:19:27.432Z,6.18
2022-09-28T04:24:28.765Z,6.06
2022-09-28T04:29:31.188Z,5.74
2022-09-28T04:34:36.562Z,5.64
2022-09-28T04:39:42.261Z,5.58
2022-09-28T04:44:46.417Z,5.51
2022-09-28T04:49:47.796Z,5.25
2022-09-28T04:54:49.151Z,5.20
2022-09-28T04:59:50.473Z,5.11
2022-09-28T05:04:51.928Z,5.08
2022-09-28T05:09:55.137Z,5.01
2022-09-28T05:14:56.643Z,4.90
2022-09-28T05:19:57.986Z,4.85
2022-09-28T05:25:00.379Z,4.79
2022-09-28T05:30:01.945Z,4.68
2022-09-28T05:35:06.351Z,4.58
2022-09-28T05:40:07.813Z,4.77
2022-09-28T05:45:09.534Z,4.66
2022-09-28T05:50:15.993Z,4.67
2022-09-28T05:55:17.314Z,4.68
2022-09-28T06:00:18.795Z,4.59
2022-09-28T06:05:20.154Z,4.56
2022-09-28T06:10:21.518Z,4.49
2022-09-28T06:15:24.211Z,4.51
2022-09-28T06:20:26.713Z,4.64
2022-09-28T06:25:28.425Z,4.70
2022-09-28T06:30:31.308Z,4.79
2022-09-28T06:35:32.906Z,4.92
2022-09-28T06:40:34.619Z,5.15
2022-09-28T06:45:36.397Z,5.42
2022-09-28T06:50:40.171Z,5.67
2022-09-28T06:55:42.563Z,5.82
2022-09-28T07:00:44.119Z,5.98
2022-09-28T07:05:46.653Z,6.16
2022-09-28T07:10:49.305Z,6.34
2022-09-28T07:15:56.991Z,6.63
2022-09-28T07:20:58.496Z,6.94
2022-09-28T07:26:03.611Z,7.13
2022-09-28T07:31:06.544Z,7.38
2022-09-28T07:36:08.690Z,7.57
2022-09-28T07:41:14.140Z,7.78
2022-09-28T07:46:16.875Z,8.05
2022-09-28T07:51:21.170Z,8.24
2022-09-28T07:56:22.639Z,8.34
2022-09-28T08:01:24.056Z,8.35
2022-09-28T08:06:25.763Z,8.60
2022-09-28T08:11:27.419Z,8.66
2022-09-28T08:16:30.331Z,8.77
2022-09-28T08:21:47.265Z,8.76
2022-09-28T08:26:51.775Z,8.85
2022-09-28T08:31:58.360Z,8.93
2022-09-28T08:37:03.985Z,9.06
2022-09-28T08:42:25.569Z,9.07
2022-09-28T08:48:07.933Z,9.36
2022-09-28T08:53:17.739Z,9.62
2022-09-28T08:58:28.434Z,9.50
2022-09-28T09:03:33.983Z,9.76
2022-09-28T09:08:50.420Z,9.83
2022-09-28T09:14:06.669Z,9.98
2022-09-28T09:19:22.782Z,9.96
2022-09-28T09:24:33.427Z,10.18
2022-09-28T09:29:50.244Z,10.38
2022-09-28T09:34:59.128Z,10.41
2022-09-28T09:40:09.348Z,10.47
2022-09-28T09:45:18.900Z,10.92
2022-09-28T09:50:41.801Z,10.60
2022-09-28T09:55:49.285Z,11.09
2022-09-28T10:00:52.144Z,11.13
2022-09-28T10:06:15.519Z,11.31
2022-09-28T10:11:22.465Z,11.77
2022-09-28T10:16:24.152Z,11.29
2022-09-28T10:21:25.841Z,11.61
2022-09-28T10:26:34.472Z,12.32
2022-09-28T10:37:06.114Z,12.39
2022-09-28T10:42:09.363Z,12.19
2022-09-28T10:47:14.921Z,13.44
2022-09-28T10:52:28.169Z,12.23
2022-09-28T10:57:33.569Z,13.23
2022-09-28T11:02:39.998Z,12.85
2022-09-28T11:07:45.374Z,12.84
2022-09-28T11:12:47.382Z,15.09
2022-09-28T11:17:48.709Z,14.11
2022-09-28T11:22:53.545Z,15.20
2022-09-28T11:27:54.943Z,14.99
2022-09-28T11:33:09.975Z,14.85
2022-09-28T11:38:20.380Z,15.08
2022-09-28T11:43:24.709Z,15.90
2022-09-28T11:48:30.817Z,15.52
2022-09-28T11:53:49.200Z,15.20
2022-09-28T11:58:55.662Z,14.05
2022-09-28T12:04:02.764Z,14.80
2022-09-28T12:09:09.346Z,14.58
2022-09-28T12:14:15.658Z,14.93
2022-09-28T12:19:46.394Z,15.17
2022-09-28T12:24:50.785Z,15.37
2022-09-28T12:30:11.027Z,14.60
2022-09-28T12:35:18.682Z,14.55
2022-09-28T12:40:23.168Z,14.56
2022-09-28T12:46:06.759Z,14.25
2022-09-28T12:51:20.208Z,14.54
2022-09-28T12:56:21.834Z,14.28
2022-09-28T13:01:49.799Z,14.13
2022-09-28T13:07:26.772Z,14.03
2022-09-28T13:12:39.254Z,13.40
2022-09-28T13:18:09.693Z,12.79
2022-09-28T13:23:20.989Z,12.58
2022-09-28T13:28:27.023Z,12.44
2022-09-28T13:33:35.733Z,12.14
2022-09-28T13:38:49.531Z,11.91
2022-09-28T13:44:06.251Z,11.80
2022-09-28T13:49:26.324Z,11.83
2022-09-28T13:54:34.630Z,11.86
2022-09-28T14:00:08.991Z,11.96
2022-09-28T14:05:22.620Z,12.14
2022-09-28T14:10:43.879Z,12.15
2022-09-28T14:15:45.519Z,11.91
2022-09-28T14:20:53.747Z,11.84
2022-09-28T14:26:13.907Z,11.70
2022-09-28T14:31:19.425Z,11.48
2022-09-28T14:36:43.840Z,11.37
2022-09-28T14:41:45.194Z,11.11
2022-09-28T14:46:52.023Z,11.18
2022-09-28T14:51:53.518Z,11.03
2022-09-28T14:56:58.066Z,10.93
2022-09-28T15:02:01.680Z,10.84
2022-09-28T15:07:03.945Z,11.03
2022-09-28T15:12:07.853Z,10.98
2022-09-28T15:17:10.232Z,10.80
2022-09-28T15:22:16.055Z,10.88
2022-09-28T15:27:19.028Z,10.76
2022-09-28T15:32:24.487Z,10.88
2022-09-28T15:37:32.940Z,10.85
2022-09-28T15:42:37.561Z,10.90
2022-09-28T15:47:40.024Z,10.80
2022-09-28T15:53:10.857Z,10.87
2022-09-28T15:58:12.629Z,10.95
2022-09-28T16:03:17.020Z,10.65
2022-09-28T16:08:24.624Z,10.72
2022-09-28T16:13:26.411Z,10.72
2022-09-28T16:18:29.679Z,10.54
2022-09-28T16:23:33.132Z,10.53
2022-09-28T16:28:35.029Z,10.44
2022-09-28T16:33:42.591Z,10.27
2022-09-28T16:38:47.473Z,10.33
2022-09-28T16:43:48.849Z,10.30
2022-09-28T16:48:50.601Z,10.31
2022-09-28T16:54:10.668Z,10.12
2022-09-28T16:59:13.941Z,9.93
2022-09-28T17:04:15.391Z,9.92
2022-09-28T17:09:16.812Z,9.81
2022-09-28T17:14:18.494Z,9.72
2022-09-28T17:19:21.566Z,9.48
2022-09-28T17:24:22.866Z,9.42
2022-09-28T17:29:24.223Z,9.27
2022-09-28T17:34:25.793Z,9.09
2022-09-28T17:39:27.268Z,9.01
2022-09-28T17:44:28.581Z,8.95
2022-09-28T17:49:29.916Z,8.85
2022-09-28T17:54:31.261Z,8.66
2022-09-28T17:59:32.686Z,8.47
2022-09-28T18:04:51.424Z,8.29
2022-09-28T18:09:56.653Z,8.30
2022-09-28T18:14:58.063Z,8.25
2022-09-28T18:19:59.400Z,8.13
2022-09-28T18:25:00.736Z,7.98
2022-09-28T18:30:02.743Z,7.99
2022-09-28T18:35:06.438Z,7.85
2022-09-28T18:40:09.483Z,7.82
2022-09-28T18:45:11.325Z,7.82
2022-09-28T18:50:13.134Z,7.70
2022-09-28T18:55:14.534Z,7.65
2022-09-28T19:00:16.319Z,7.51
2022-09-28T19:05:18.779Z,7.41
2022-09-28T19:10:20.215Z,7.34
2022-09-28T19:15:22.743Z,7.15
2022-09-28T19:20:24.099Z,7.19
2022-09-28T19:25:26.964Z,7.21
2022-09-28T19:30:28.413Z,7.07
2022-09-28T19:35:30.432Z,7.05
2022-09-28T19:40:33.056Z,7.03
2022-09-28T19:45:36.721Z,6.98
2022-09-28T19:50:39.966Z,6.86
2022-09-28T19:55:50.113Z,6.72
2022-09-28T20:00:51.747Z,6.60
2022-09-28T20:05:57.529Z,6.54
2022-09-28T20:11:00.023Z,6.39
2022-09-28T20:16:11.905Z,6.31
2022-09-28T20:21:17.171Z,6.34
2022-09-28T20:26:20.181Z,6.25
2022-09-28T20:31:22.769Z,6.22
2022-09-28T20:36:25.261Z,6.12
2022-09-28T20:41:27.568Z,6.09
2022-09-28T20:46:29.282Z,6.12
2022-09-28T20:51:30.732Z,6.16
2022-09-28T20:56:39.237Z,6.10
2022-09-28T21:01:40.941Z,6.03
2022-09-28T21:06:42.599Z,5.90
2022-09-28T21:11:43.961Z,5.87
2022-09-28T21:16:45.268Z,5.72
2022-09-28T21:21:46.778Z,5.82
2022-09-28T21:26:48.088Z,5.75
2022-09-28T21:31:49.468Z,5.66
2022-09-28T21:36:51.353Z,5.49
2022-09-28T21:41:52.914Z,5.47
2022-09-28T21:46:54.278Z,5.47
2022-09-28T21:51:55.605Z,5.41
2022-09-28T21:56:56.872Z,5.43
2022-09-28T22:01:58.250Z,5.33
2022-09-28T22:06:59.714Z,5.15
2022-09-28T22:12:01.189Z,5.20
2022-09-28T22:17:02.542Z,5.14
2022-09-28T22:22:03.876Z,5.05
2022-09-28T22:27:05.255Z,5.03
2022-09-28T22:32:07.560Z,4.93
2022-09-28T22:37:08.961Z,4.86
2022-09-28T22:42:10.270Z,4.82
2022-09-28T22:47:11.648Z,4.75
2022-09-28T22:52:12.948Z,4.69
2022-09-28T22:57:14.347Z,4.59
2022-09-28T23:02:15.648Z,4.62
2022-09-28T23:07:17.152Z,4.63
2022-09-28T23:12:18.477Z,4.58
2022-09-28T23:17:19.838Z,4.69
2022-09-28T23:22:21.157Z,4.71
2022-09-28T23:27:22.515Z,4.58
2022-09-28T23:32:25.763Z,4.51
2022-09-28T23:37:29.927Z,4.47
2022-09-28T23:42:31.438Z,4.32
2022-09-28T23:47:32.800Z,4.24
2022-09-28T23:52:34.970Z,4.20
2022-09-28T23:57:36.283Z,4.19
